Country
Station

 

Weather  for  Monbaca Benguela  -  Angola    Angola

  
25 °C (77 °F)
    
 
 

Current METAR for Monbaca Benguela is :

FNBG 201400Z 31005KT CAVOK 25/21 Q1013

 

This is a report for Monbaca Benguela - Angola.
 
The report was made 6 hours and 23 minutes ago, at 14:00 UTC .
The wind was blowing at a speed of 2.6 meters per second (5.8 miles per hour) from northwest (310°).
 
The temperature was 25 °C (77 °F), with a dew-point at 21 °C (70 °F).
The temperature felt like 26 °C (79 °F).
 
The atmospheric pressure was 1013 hPa (29.91 inHg).
The relative humidity was 78.5%.
 
There were no clouds below 1500 meter (5000 feet) and no cumulonimbus clouds.
 
The overall visibility was greater than 10 kilometers (6.2 miles).
 

 
 
 
 

Country :   A   B   C   D   E   F   G   H   I   J   K   L   M   N   O   P   Q   R   S   T   U   V   W   Y   Z

 

Site Info  |  Disclaimer  |  Credits  |  Privacy
Contact us  |  Add to favorites
© 2013-2019 METARs - All rights reserved